Willis, VA (24380)

11:29 PM EST on February 07, 2016 (GMT -0500)
near Chateau Morrisette | | Change Station
CLOSE
Current Station
Personal Weather Station
Location: Floyd, VA
Elevation: 3450 ft
Nearby Weather Stations

Elev 3450 ft 36.79 °N, 80.40 °W | Updated 34 minutes ago

Clear
Clear
33.8 °F
Feels Like 34 °F
N
2.4
Wind Variable Wind from North
Gusts 6.0 mph

Today
High -- | Low -- °F
--% Chance of Precip.
Yesterday
High -- | Low -- °F
Precip. -- in
Pressure 29.84 in
Visibility 10.0 miles
Clouds Clear
Windchill 34 °F
Dew Point 22 °F
Humidity 63%
Rainfall 0.00 in
Snow Depth Not available.
7:19 AM 5:53 PM
Waning Crescent, 0% visible
METAR KHLX 080415Z AUTO 28007KT 10SM CLR 01/M06 A2984 RMK AO2 T00081057
Pressure 29.84 in
Visibility 10.0 miles
Clouds Clear
Windchill 34 °F
Dew Point 22 °F
Humidity 63%
Rainfall 0.00 in
Snow Depth Not available.
7:19 AM 5:53 PM
Waning Crescent, 0% visible
METAR KHLX 080415Z AUTO 28007KT 10SM CLR 01/M06 A2984 RMK AO2 T00081057

10-Day Weather Forecast

Almanac

Astronomy

Feb. 07, 2016 Rise Set
Actual Time
Civil Twilight
Nautical Twilight
Astronomical Twilight
Moon
Length of Visible Light
Length of Day
Tomorrow will be .
, % of the Moon is Illuminated

Today's Extremes

State Highs State Lows

Community

WunderPhotos

Upload Photos

1,891,379 photos uploaded!

WunderBlog® & News

Nearby

Air Quality

  Air Quality AQ Index Pollutant
Not available.

Snow Depth

Station Depth Elevation

Earthquake Activity

City Distance Mag. Time & Date
Minimum magnitude displayed is 2.5.

Coastal Water Temperatures

Place Temperature

Stations

Nearby Weather Stations

Station Location Temp. Windchill Dew Point Humidity Wind Precip. Elev Updated Type
                   

Watches & Warnings

There are currently no watches in effect.